createdAt,value
2018-05-04T00:01:51.788Z,95371.77
2018-05-04T00:04:20.478Z,95373.41
2018-05-04T00:06:48.933Z,95384.28
2018-05-04T00:09:17.441Z,95379.59
2018-05-04T00:11:45.895Z,95380.13
2018-05-04T00:14:14.295Z,95380.36
2018-05-04T00:16:42.735Z,95373.48
2018-05-04T00:19:11.323Z,95383.44
2018-05-04T00:21:39.817Z,95386.49
2018-05-04T00:24:08.235Z,95394.38
2018-05-04T00:26:36.785Z,95393.36
2018-05-04T00:29:05.266Z,95396.50
2018-05-04T00:31:33.763Z,95398.47
2018-05-04T00:34:02.230Z,95405.97
2018-05-04T00:36:30.667Z,95409.86
2018-05-04T00:38:59.154Z,95414.91
2018-05-04T00:41:27.644Z,95422.06
2018-05-04T00:43:56.283Z,95424.46
2018-05-04T00:46:24.670Z,95424.90
2018-05-04T00:48:53.183Z,95430.75
2018-05-04T00:51:21.694Z,95434.86
2018-05-04T00:54:02.080Z,95425.55
2018-05-04T00:56:30.489Z,95429.89
2018-05-04T00:58:58.962Z,95429.38
2018-05-04T01:01:27.449Z,95432.78
2018-05-04T01:03:55.974Z,95430.91
2018-05-04T01:06:24.451Z,95438.17
2018-05-04T01:08:52.850Z,95435.98
2018-05-04T01:11:21.355Z,95433.66
2018-05-04T01:13:49.891Z,95435.39
2018-05-04T01:16:18.308Z,95438.65
2018-05-04T01:18:46.681Z,95447.83
2018-05-04T01:21:15.053Z,95440.41
2018-05-04T01:23:43.458Z,95438.02
2018-05-04T01:26:11.938Z,95441.89
2018-05-04T01:28:40.407Z,95439.78
2018-05-04T01:31:08.829Z,95438.80
2018-05-04T01:33:37.253Z,95443.12
2018-05-04T01:36:05.685Z,95441.77
2018-05-04T01:38:34.267Z,95447.02
2018-05-04T01:41:02.667Z,95447.77
2018-05-04T01:43:31.224Z,95451.42
2018-05-04T01:45:59.635Z,95453.61
2018-05-04T01:48:28.195Z,95446.48
2018-05-04T01:50:56.602Z,95457.56
2018-05-04T01:53:24.975Z,95462.60
2018-05-04T01:55:53.348Z,95457.28
2018-05-04T01:58:21.802Z,95459.13
2018-05-04T02:00:50.251Z,95452.41
2018-05-04T02:03:18.628Z,95444.50
2018-05-04T02:05:47.159Z,95439.97
2018-05-04T02:08:15.612Z,95442.63
2018-05-04T02:10:43.980Z,95439.19
2018-05-04T02:13:12.544Z,95440.27
2018-05-04T02:15:41.055Z,95447.19
2018-05-04T02:18:09.481Z,95442.20
2018-05-04T02:20:37.856Z,95435.31
2018-05-04T02:23:06.401Z,95433.89
2018-05-04T02:25:34.876Z,95435.17
2018-05-04T02:28:03.375Z,95438.33
2018-05-04T02:30:31.831Z,95442.12
2018-05-04T02:33:00.333Z,95438.75
2018-05-04T02:35:28.746Z,95439.41
2018-05-04T02:37:57.214Z,95442.79
2018-05-04T02:40:25.672Z,95445.00
2018-05-04T02:42:54.079Z,95441.91
2018-05-04T02:45:22.545Z,95438.38
2018-05-04T02:47:50.980Z,95445.44
2018-05-04T02:50:19.404Z,95445.44
2018-05-04T02:52:47.839Z,95437.02
2018-05-04T02:55:16.300Z,95435.84
2018-05-04T02:57:44.737Z,95434.02
2018-05-04T03:00:34.940Z,95427.52
2018-05-04T03:03:03.374Z,95430.70
2018-05-04T03:05:31.951Z,95429.92
2018-05-04T03:08:00.376Z,95422.86
2018-05-04T03:10:28.935Z,95425.09
2018-05-04T03:12:57.421Z,95424.30
2018-05-04T03:15:25.871Z,95420.23
2018-05-04T03:17:54.314Z,95426.93
2018-05-04T03:20:22.858Z,95431.98
2018-05-04T03:22:51.307Z,95435.47
2018-05-04T03:25:19.833Z,95429.45
2018-05-04T03:27:48.377Z,95432.13
2018-05-04T03:30:16.818Z,95438.04
2018-05-04T03:32:45.205Z,95436.05
2018-05-04T03:35:13.678Z,95434.89
2018-05-04T03:37:42.126Z,95437.09
2018-05-04T03:40:10.537Z,95433.16
2018-05-04T03:42:39.018Z,95429.01
2018-05-04T03:45:07.485Z,95431.23
2018-05-04T03:47:36.936Z,95429.95
2018-05-04T03:50:05.389Z,95434.50
2018-05-04T03:52:33.864Z,95438.81
2018-05-04T03:55:03.122Z,95438.83
2018-05-04T03:57:43.322Z,95441.73
2018-05-04T04:00:23.699Z,95445.25
2018-05-04T04:03:04.155Z,95454.80
2018-05-04T04:05:36.367Z,95452.14
2018-05-04T04:08:05.053Z,95456.30
2018-05-04T04:10:33.549Z,95459.14
2018-05-04T04:13:02.009Z,95456.20
2018-05-04T04:15:30.432Z,95457.95
2018-05-04T04:17:58.917Z,95456.78
2018-05-04T04:20:27.329Z,95461.01
2018-05-04T04:22:55.861Z,95470.12
2018-05-04T04:25:24.315Z,95465.14
2018-05-04T04:27:52.705Z,95462.11
2018-05-04T04:30:21.146Z,95457.06
2018-05-04T04:32:49.578Z,95466.16
2018-05-04T04:35:18.130Z,95468.21
2018-05-04T04:37:46.662Z,95461.10
2018-05-04T04:40:15.298Z,95456.41
2018-05-04T04:42:43.882Z,95457.08
2018-05-04T04:45:12.371Z,95460.05
2018-05-04T04:47:40.876Z,95465.18
2018-05-04T04:50:09.273Z,95466.34
2018-05-04T04:52:37.780Z,95477.20
2018-05-04T04:55:06.379Z,95472.70
2018-05-04T04:57:34.880Z,95479.93
2018-05-04T05:00:03.482Z,95477.69
2018-05-04T05:02:31.947Z,95485.30
2018-05-04T05:05:01.769Z,95484.55
2018-05-04T05:07:30.505Z,95476.49
2018-05-04T05:09:59.104Z,95479.50
2018-05-04T05:12:27.523Z,95477.58
2018-05-04T05:14:55.989Z,95480.70
2018-05-04T05:17:24.475Z,95486.23
2018-05-04T05:19:52.920Z,95487.30
2018-05-04T05:22:21.454Z,95496.67
2018-05-04T05:24:50.110Z,95494.40
2018-05-04T05:27:18.618Z,95496.23
2018-05-04T05:29:47.122Z,95488.82
2018-05-04T05:32:15.697Z,95495.27
2018-05-04T05:34:44.382Z,95493.41
2018-05-04T05:37:12.827Z,95494.66
2018-05-04T05:39:41.384Z,95500.70
2018-05-04T05:42:09.809Z,95489.23
2018-05-04T05:44:38.333Z,95492.52
2018-05-04T05:47:06.799Z,95487.42
2018-05-04T05:49:35.188Z,95491.22
2018-05-04T05:52:03.749Z,95489.33
2018-05-04T05:54:32.227Z,95491.23
2018-05-04T05:57:00.667Z,95497.78
2018-05-04T05:59:29.091Z,95490.94
2018-05-04T06:01:57.473Z,95497.64
2018-05-04T06:04:26.018Z,95500.63
2018-05-04T06:06:54.454Z,95504.66
2018-05-04T06:09:23.029Z,95502.88
2018-05-04T06:11:51.477Z,95503.23
2018-05-04T06:14:20.006Z,95507.15
2018-05-04T06:16:48.500Z,95502.25
2018-05-04T06:19:16.926Z,95512.09
2018-05-04T06:21:45.415Z,95512.82
2018-05-04T06:24:13.853Z,95509.73
2018-05-04T06:26:42.392Z,95513.45
2018-05-04T06:29:11.832Z,95519.52
2018-05-04T06:31:40.282Z,95518.73
2018-05-04T06:34:08.763Z,95521.47
2018-05-04T06:36:37.234Z,95518.16
2018-05-04T06:39:05.788Z,95520.45
2018-05-04T06:41:34.274Z,95525.35
2018-05-04T06:44:02.779Z,95520.70
2018-05-04T06:46:31.343Z,95516.05
2018-05-04T06:48:59.942Z,95526.12
2018-05-04T06:51:28.353Z,95533.97
2018-05-04T06:53:56.878Z,95535.77
2018-05-04T06:56:25.422Z,95533.42
2018-05-04T06:58:53.890Z,95536.23
2018-05-04T07:01:22.481Z,95532.38
2018-05-04T07:03:50.960Z,95528.71
2018-05-04T07:06:19.535Z,95527.06
2018-05-04T07:08:48.031Z,95529.72
2018-05-04T07:11:16.484Z,95526.79
2018-05-04T07:13:45.151Z,95525.89
2018-05-04T07:16:13.740Z,95530.27
2018-05-04T07:18:42.450Z,95529.26
2018-05-04T07:21:10.876Z,95524.19
2018-05-04T07:23:39.315Z,95523.26
2018-05-04T07:26:08.070Z,95530.20
2018-05-04T07:28:36.523Z,95536.55
2018-05-04T07:31:05.219Z,95541.31
2018-05-04T07:33:33.693Z,95539.07
2018-05-04T07:36:02.172Z,95541.95
2018-05-04T07:38:30.610Z,95542.25
2018-05-04T07:40:59.086Z,95540.67
2018-05-04T07:43:27.940Z,95551.53
2018-05-04T07:45:56.417Z,95549.19
2018-05-04T07:48:24.910Z,95549.34
2018-05-04T07:50:53.370Z,95544.27
2018-05-04T07:53:21.842Z,95541.84
2018-05-04T07:55:50.412Z,95538.93
2018-05-04T07:58:19.266Z,95545.90
2018-05-04T08:00:47.787Z,95548.14
2018-05-04T08:03:16.298Z,95545.20
2018-05-04T08:05:44.815Z,95550.22
2018-05-04T08:08:13.338Z,95544.42
2018-05-04T08:10:41.785Z,95545.00
2018-05-04T08:13:10.855Z,95545.27
2018-05-04T08:15:39.476Z,95540.50
2018-05-04T08:18:07.943Z,95536.89
2018-05-04T08:20:36.459Z,95552.38
2018-05-04T08:23:05.050Z,95542.25
2018-05-04T08:25:33.682Z,95539.71
2018-05-04T08:28:02.265Z,95549.89
2018-05-04T08:30:30.787Z,95544.58
2018-05-04T08:32:59.237Z,95540.91
2018-05-04T08:35:27.741Z,95552.96
2018-05-04T08:37:56.162Z,95539.33
2018-05-04T08:40:24.583Z,95544.16
2018-05-04T08:42:53.056Z,95545.23
2018-05-04T08:45:21.459Z,95545.33
2018-05-04T08:47:49.956Z,95543.72
2018-05-04T08:50:18.502Z,95538.14
2018-05-04T08:52:47.179Z,95528.72
2018-05-04T08:55:15.650Z,95526.42
2018-05-04T08:57:44.104Z,95528.78
2018-05-04T09:00:12.591Z,95527.44
2018-05-04T09:02:41.097Z,95527.09
2018-05-04T09:05:09.512Z,95533.71
2018-05-04T09:07:38.079Z,95528.57
2018-05-04T09:10:06.405Z,95519.41
2018-05-04T09:12:34.877Z,95523.33
2018-05-04T09:15:03.497Z,95519.98
2018-05-04T09:17:31.980Z,95517.76
2018-05-04T09:20:00.477Z,95523.58
2018-05-04T09:22:29.195Z,95518.80
2018-05-04T09:24:57.656Z,95518.91
2018-05-04T09:27:26.116Z,95520.59
2018-05-04T09:29:54.538Z,95522.14
2018-05-04T09:32:23.105Z,95523.20
2018-05-04T09:34:51.633Z,95527.19
2018-05-04T09:37:20.152Z,95523.11
2018-05-04T09:39:48.702Z,95526.98
2018-05-04T09:42:17.195Z,95527.13
2018-05-04T09:44:45.613Z,95532.42
2018-05-04T09:47:14.065Z,95528.37
2018-05-04T09:49:42.540Z,95530.16
2018-05-04T09:52:11.061Z,95534.86
2018-05-04T09:54:39.552Z,95536.59
2018-05-04T09:57:08.428Z,95528.98
2018-05-04T09:59:36.917Z,95531.86
2018-05-04T10:02:05.409Z,95533.13
2018-05-04T10:04:33.832Z,95526.00
2018-05-04T10:07:02.361Z,95543.31
2018-05-04T10:09:30.888Z,95532.56
2018-05-04T10:11:59.340Z,95528.94
2018-05-04T10:14:27.786Z,95527.32
2018-05-04T10:16:56.237Z,95534.98
2018-05-04T10:19:24.722Z,95532.63
2018-05-04T10:21:53.266Z,95523.23
2018-05-04T10:24:21.716Z,95523.43
2018-05-04T10:26:50.440Z,95518.58
2018-05-04T10:29:18.973Z,95520.63
2018-05-04T10:31:47.526Z,95527.23
2018-05-04T10:34:16.097Z,95521.38
2018-05-04T10:36:44.590Z,95523.19
2018-05-04T10:39:13.046Z,95528.45
2018-05-04T10:41:46.790Z,95514.67
2018-05-04T10:44:15.442Z,95513.37
2018-05-04T10:46:43.908Z,95521.07
2018-05-04T10:49:12.462Z,95520.12
2018-05-04T10:51:41.097Z,95518.31
2018-05-04T10:54:09.531Z,95509.39
2018-05-04T10:56:38.044Z,95518.61
2018-05-04T10:59:06.637Z,95510.22
2018-05-04T11:01:35.166Z,95515.03
2018-05-04T11:04:03.791Z,95514.08
2018-05-04T11:06:32.320Z,95503.31
2018-05-04T11:09:01.543Z,95498.47
2018-05-04T11:11:29.981Z,95511.87
2018-05-04T11:13:58.658Z,95510.02
2018-05-04T11:16:27.218Z,95506.09
2018-05-04T11:18:56.735Z,95514.42
2018-05-04T11:21:25.425Z,95524.28
2018-05-04T11:23:53.879Z,95524.73
2018-05-04T11:26:22.357Z,95525.20
2018-05-04T11:28:50.863Z,95529.83
2018-05-04T11:31:19.311Z,95522.74
2018-05-04T11:33:47.925Z,95522.06
2018-05-04T11:36:16.348Z,95515.94
2018-05-04T11:38:44.839Z,95530.50
2018-05-04T11:41:13.508Z,95527.05
2018-05-04T11:43:42.066Z,95526.44
2018-05-04T11:46:10.591Z,95521.96
2018-05-04T11:48:39.116Z,95524.05
2018-05-04T11:51:07.546Z,95526.97
2018-05-04T11:53:36.069Z,95527.48
2018-05-04T11:56:04.497Z,95528.84
2018-05-04T11:58:32.902Z,95525.05
2018-05-04T12:01:01.527Z,95518.59
2018-05-04T12:03:30.019Z,95534.23
2018-05-04T12:05:58.599Z,95519.87
2018-05-04T12:08:27.132Z,95523.25
2018-05-04T12:10:55.709Z,95514.55
2018-05-04T12:13:24.266Z,95524.53
2018-05-04T12:15:52.804Z,95520.41
2018-05-04T12:18:21.296Z,95521.02
2018-05-04T12:20:49.812Z,95530.89
2018-05-04T12:23:18.279Z,95530.95
2018-05-04T12:25:46.856Z,95533.96
2018-05-04T12:28:15.542Z,95525.58
2018-05-04T12:30:44.214Z,95538.81
2018-05-04T12:33:12.668Z,95542.44
2018-05-04T12:35:41.235Z,95539.84
2018-05-04T12:38:09.834Z,95532.89
2018-05-04T12:40:38.350Z,95542.09
2018-05-04T12:43:06.882Z,95550.22
2018-05-04T12:45:35.479Z,95552.94
2018-05-04T12:48:04.165Z,95551.08
2018-05-04T12:50:32.658Z,95551.11
2018-05-04T12:53:01.206Z,95543.14
2018-05-04T12:55:29.703Z,95539.15
2018-05-04T12:57:58.374Z,95544.55
2018-05-04T13:00:26.839Z,95535.95
2018-05-04T13:02:55.447Z,95536.09
2018-05-04T13:05:24.018Z,95536.48
2018-05-04T13:07:52.494Z,95533.86
2018-05-04T13:10:20.981Z,95535.27
2018-05-04T13:12:49.458Z,95532.30
2018-05-04T13:15:17.995Z,95531.91
2018-05-04T13:17:46.680Z,95534.87
2018-05-04T13:20:15.199Z,95539.03
2018-05-04T13:22:43.744Z,95533.33
2018-05-04T13:25:12.226Z,95529.05
2018-05-04T13:27:40.758Z,95521.50
2018-05-04T13:30:09.281Z,95533.34
2018-05-04T13:32:38.957Z,95531.50
2018-05-04T13:35:07.411Z,95526.42
2018-05-04T13:37:35.900Z,95534.23
2018-05-04T13:40:04.369Z,95528.07
2018-05-04T13:42:32.939Z,95526.83
2018-05-04T13:45:01.378Z,95534.11
2018-05-04T13:47:29.836Z,95530.30
2018-05-04T13:49:58.335Z,95531.70
2018-05-04T13:52:26.829Z,95520.48
2018-05-04T13:54:55.302Z,95530.21
2018-05-04T13:57:23.733Z,95518.36
2018-05-04T13:59:52.223Z,95525.63
2018-05-04T14:02:20.993Z,95527.63
2018-05-04T14:04:49.592Z,95536.01
2018-05-04T14:07:18.329Z,95531.45
2018-05-04T14:09:46.979Z,95528.66
2018-05-04T14:12:15.467Z,95527.70
2018-05-04T14:14:44.081Z,95531.97
2018-05-04T14:17:12.676Z,95524.07
2018-05-04T14:19:41.251Z,95526.95
2018-05-04T14:22:09.858Z,95524.03
2018-05-04T14:24:38.322Z,95524.69
2018-05-04T14:27:06.779Z,95524.43
2018-05-04T14:29:35.291Z,95522.20
2018-05-04T14:32:03.817Z,95522.37
2018-05-04T14:34:32.244Z,95514.47
2018-05-04T14:37:00.813Z,95512.86
2018-05-04T14:39:29.238Z,95514.81
2018-05-04T14:41:57.719Z,95520.54
2018-05-04T14:44:26.143Z,95523.80
2018-05-04T14:46:54.654Z,95521.02
2018-05-04T14:49:23.093Z,95524.59
2018-05-04T14:51:51.493Z,95519.27
2018-05-04T14:54:19.973Z,95532.20
2018-05-04T14:56:48.501Z,95535.66
2018-05-04T14:59:17.060Z,95528.36
2018-05-04T15:01:45.497Z,95522.89
2018-05-04T15:04:14.135Z,95524.64
2018-05-04T15:06:42.921Z,95524.16
2018-05-04T15:09:11.454Z,95530.20
2018-05-04T15:11:39.976Z,95525.10
2018-05-04T15:14:08.531Z,95520.86
2018-05-04T15:16:37.095Z,95524.70
2018-05-04T15:19:05.637Z,95523.77
2018-05-04T15:21:34.319Z,95529.22
2018-05-04T15:24:02.930Z,95534.75
2018-05-04T15:26:31.523Z,95520.68
2018-05-04T15:29:00.105Z,95526.52
2018-05-04T15:31:28.794Z,95529.69
2018-05-04T15:33:57.356Z,95528.16
2018-05-04T15:36:25.925Z,95539.22
2018-05-04T15:38:54.349Z,95533.41
2018-05-04T15:41:22.817Z,95526.08
2018-05-04T15:43:51.348Z,95531.22
2018-05-04T15:46:19.737Z,95527.44
2018-05-04T15:48:53.840Z,95523.14
2018-05-04T15:51:27.891Z,95526.52
2018-05-04T15:53:56.437Z,95526.37
2018-05-04T15:56:24.966Z,95527.34
2018-05-04T15:58:53.448Z,95532.05
2018-05-04T16:01:22.003Z,95526.91
2018-05-04T16:03:50.506Z,95532.41
2018-05-04T16:06:19.071Z,95535.50
2018-05-04T16:08:47.524Z,95524.96
2018-05-04T16:11:16.084Z,95520.13
2018-05-04T16:13:44.857Z,95514.58
2018-05-04T16:16:13.417Z,95525.27
2018-05-04T16:18:41.909Z,95514.15
2018-05-04T16:21:10.473Z,95522.28
2018-05-04T16:23:39.257Z,95518.23
2018-05-04T16:26:07.722Z,95515.52
2018-05-04T16:28:36.234Z,95521.59
2018-05-04T16:33:39.542Z,95523.49
2018-05-04T16:36:08.015Z,95524.70
2018-05-04T16:38:36.515Z,95524.98
2018-05-04T16:41:04.962Z,95519.86
2018-05-04T16:43:33.610Z,95519.74
2018-05-04T16:46:02.330Z,95520.28
2018-05-04T16:48:36.491Z,95525.03
2018-05-04T16:51:05.143Z,95519.27
2018-05-04T16:53:33.644Z,95520.97
2018-05-04T16:56:02.129Z,95527.05
2018-05-04T16:58:30.605Z,95531.36
2018-05-04T17:00:59.075Z,95530.77
2018-05-04T17:03:27.715Z,95535.33
2018-05-04T17:05:56.468Z,95533.63
2018-05-04T17:08:25.127Z,95540.71
2018-05-04T17:10:53.591Z,95542.36
2018-05-04T17:13:22.074Z,95540.50
2018-05-04T17:15:50.636Z,95541.50
2018-05-04T17:18:19.098Z,95547.09
2018-05-04T17:20:47.713Z,95544.92
2018-05-04T17:23:16.185Z,95551.64
2018-05-04T17:25:44.653Z,95555.27
2018-05-04T17:28:13.194Z,95558.36
2018-05-04T17:30:41.721Z,95555.80
2018-05-04T17:33:10.269Z,95558.94
2018-05-04T17:35:38.738Z,95559.55
2018-05-04T17:38:07.169Z,95563.52
2018-05-04T17:40:35.665Z,95562.06
2018-05-04T17:43:04.318Z,95561.16
2018-05-04T17:45:32.984Z,95569.39
2018-05-04T17:48:01.498Z,95557.23
2018-05-04T17:50:30.063Z,95560.92
2018-05-04T17:52:58.800Z,95567.77
2018-05-04T17:55:27.327Z,95563.73
2018-05-04T17:57:55.850Z,95569.67
2018-05-04T18:00:30.870Z,95569.19
2018-05-04T18:02:59.348Z,95567.09
2018-05-04T18:08:35.211Z,95565.05
2018-05-04T18:11:07.109Z,95561.67
2018-05-04T18:13:35.625Z,95563.39
2018-05-04T18:16:04.110Z,95570.44
2018-05-04T18:18:32.597Z,95564.95
2018-05-04T18:21:01.027Z,95572.46
2018-05-04T18:23:29.447Z,95576.36
2018-05-04T18:25:57.949Z,95571.75
2018-05-04T18:28:26.367Z,95580.72
2018-05-04T18:30:54.865Z,95581.20
2018-05-04T18:33:24.870Z,95589.19
2018-05-04T18:35:53.356Z,95589.58
2018-05-04T18:38:21.839Z,95595.39
2018-05-04T18:40:50.307Z,95602.53
2018-05-04T18:43:18.898Z,95606.86
2018-05-04T18:45:47.356Z,95616.33
2018-05-04T18:48:15.857Z,95612.61
2018-05-04T18:50:44.285Z,95622.67
2018-05-04T18:53:12.802Z,95622.31
2018-05-04T18:55:41.232Z,95628.70
2018-05-04T18:58:09.665Z,95627.95
2018-05-04T19:00:38.196Z,95637.03
2018-05-04T19:03:12.185Z,95644.03
2018-05-04T19:05:40.757Z,95649.20
2018-05-04T19:08:09.211Z,95650.45
2018-05-04T19:10:37.630Z,95647.68
2018-05-04T19:13:06.235Z,95655.77
2018-05-04T19:15:34.826Z,95657.77
2018-05-04T19:18:03.393Z,95666.44
2018-05-04T19:20:31.837Z,95671.28
2018-05-04T19:23:00.285Z,95671.64
2018-05-04T19:25:28.800Z,95665.98
2018-05-04T19:27:57.445Z,95676.17
2018-05-04T19:30:25.975Z,95673.28
2018-05-04T19:32:54.463Z,95672.91
2018-05-04T19:35:22.917Z,95678.61
2018-05-04T19:37:51.759Z,95677.66
2018-05-04T19:40:20.299Z,95684.31
2018-05-04T19:42:48.800Z,95685.63
2018-05-04T19:45:17.329Z,95690.45
2018-05-04T19:47:45.826Z,95689.38
2018-05-04T19:50:14.287Z,95683.61
2018-05-04T19:52:42.715Z,95687.36
2018-05-04T19:55:11.111Z,95688.98
2018-05-04T19:57:39.540Z,95696.59
2018-05-04T20:00:07.932Z,95696.05
2018-05-04T20:02:36.432Z,95702.93
2018-05-04T20:05:04.893Z,95704.26
2018-05-04T20:07:33.395Z,95707.84
2018-05-04T20:10:01.832Z,95714.52
2018-05-04T20:12:30.229Z,95710.73
2018-05-04T20:14:59.703Z,95709.97
2018-05-04T20:17:28.118Z,95715.03
2018-05-04T20:19:56.516Z,95719.84
2018-05-04T20:22:24.955Z,95719.36
2018-05-04T20:24:53.346Z,95724.98
2018-05-04T20:27:21.876Z,95723.39
2018-05-04T20:29:50.321Z,95725.48
2018-05-04T20:32:18.868Z,95729.03
2018-05-04T20:34:47.332Z,95733.60
2018-05-04T20:37:15.747Z,95726.04
2018-05-04T20:39:44.124Z,95715.72
2018-05-04T20:42:12.830Z,95730.11
2018-05-04T20:44:41.270Z,95724.94
2018-05-04T20:47:09.825Z,95725.73
2018-05-04T20:49:38.257Z,95728.34
2018-05-04T20:52:06.732Z,95729.23
2018-05-04T20:54:35.128Z,95728.84
2018-05-04T20:57:03.549Z,95733.77
2018-05-04T20:59:32.007Z,95729.48
2018-05-04T21:02:00.499Z,95726.72
2018-05-04T21:04:29.059Z,95723.80
2018-05-04T21:06:57.459Z,95723.47
2018-05-04T21:09:27.979Z,95721.25
2018-05-04T21:11:56.602Z,95714.60
2018-05-04T21:14:25.102Z,95720.95
2018-05-04T21:16:53.553Z,95721.11
2018-05-04T21:19:22.234Z,95724.17
2018-05-04T21:21:50.853Z,95718.98
2018-05-04T21:24:19.865Z,95725.44
2018-05-04T21:26:48.470Z,95729.12
2018-05-04T21:29:16.894Z,95729.28
2018-05-04T21:31:45.651Z,95730.25
2018-05-04T21:34:15.448Z,95734.05
2018-05-04T21:36:44.163Z,95722.48
2018-05-04T21:39:12.944Z,95733.23
2018-05-04T21:41:41.571Z,95732.55
2018-05-04T21:44:10.004Z,95725.36
2018-05-04T21:46:38.388Z,95727.50
2018-05-04T21:49:06.873Z,95719.92
2018-05-04T21:51:35.326Z,95726.75
2018-05-04T21:54:03.827Z,95726.61
2018-05-04T21:56:32.284Z,95730.56
2018-05-04T21:59:00.765Z,95729.45
2018-05-04T22:01:29.209Z,95732.13
2018-05-04T22:03:57.646Z,95731.41
2018-05-04T22:06:26.105Z,95729.55
2018-05-04T22:08:54.578Z,95733.39
2018-05-04T22:11:23.058Z,95731.65
2018-05-04T22:13:51.527Z,95732.36
2018-05-04T22:16:20.009Z,95730.30
2018-05-04T22:18:48.510Z,95727.03
2018-05-04T22:21:16.906Z,95732.53
2018-05-04T22:23:45.807Z,95730.72
2018-05-04T22:26:14.293Z,95725.59
2018-05-04T22:28:43.021Z,95725.96
2018-05-04T22:31:11.508Z,95721.91
2018-05-04T22:33:39.966Z,95732.22
2018-05-04T22:36:08.377Z,95733.14
2018-05-04T22:38:36.803Z,95728.22
2018-05-04T22:41:05.281Z,95730.89
2018-05-04T22:43:33.738Z,95727.99
2018-05-04T22:46:02.234Z,95734.92
2018-05-04T22:48:30.658Z,95729.09
2018-05-04T22:50:59.130Z,95737.55
2018-05-04T22:53:27.575Z,95737.94
2018-05-04T22:55:55.955Z,95731.80
2018-05-04T22:58:24.373Z,95735.12
2018-05-04T23:00:52.815Z,95740.02
2018-05-04T23:03:21.280Z,95738.11
2018-05-04T23:05:49.696Z,95742.30
2018-05-04T23:08:18.109Z,95740.05
2018-05-04T23:10:46.608Z,95735.58
2018-05-04T23:13:15.068Z,95741.88
2018-05-04T23:15:43.645Z,95738.89
2018-05-04T23:18:12.069Z,95741.45
2018-05-04T23:20:40.466Z,95736.68
2018-05-04T23:23:08.938Z,95743.38
2018-05-04T23:25:37.386Z,95731.53
2018-05-04T23:28:05.886Z,95739.30
2018-05-04T23:30:34.319Z,95738.05
2018-05-04T23:33:02.764Z,95742.38
2018-05-04T23:35:31.406Z,95738.21
2018-05-04T23:37:59.916Z,95740.31
2018-05-04T23:40:28.432Z,95736.58
2018-05-04T23:42:56.869Z,95743.21
2018-05-04T23:45:25.292Z,95740.83
2018-05-04T23:47:53.726Z,95741.82
2018-05-04T23:50:22.216Z,95742.41
2018-05-04T23:52:50.704Z,95739.30
2018-05-04T23:55:19.141Z,95745.17
2018-05-04T23:57:47.676Z,95743.26
